createdAt,value
2023-04-02T00:00:25.178Z,13.27
2023-04-02T00:03:03.688Z,15.55
2023-04-02T00:05:55.781Z,13.38
2023-04-02T00:08:30.499Z,12.55
2023-04-02T00:11:01.152Z,15.07
2023-04-02T00:13:37.088Z,13.82
2023-04-02T00:16:09.346Z,15.68
2023-04-02T00:18:43.631Z,11.18
2023-04-02T00:21:27.078Z,13.20
2023-04-02T00:24:00.158Z,14.77
2023-04-02T00:26:33.758Z,18.65
2023-04-02T00:29:04.893Z,18.42
2023-04-02T00:31:34.283Z,21.23
2023-04-02T00:34:05.577Z,21.48
2023-04-02T00:36:37.729Z,20.20
2023-04-02T00:39:21.404Z,24.42
2023-04-02T00:41:54.553Z,21.77
2023-04-02T00:44:23.728Z,21.52
2023-04-02T00:46:53.374Z,23.35
2023-04-02T00:49:30.577Z,26.42
2023-04-02T00:52:02.722Z,23.60
2023-04-02T00:54:38.698Z,22.45
2023-04-02T00:57:17.866Z,20.98
2023-04-02T00:59:56.557Z,21.25
2023-04-02T01:02:31.632Z,20.30
2023-04-02T01:05:02.245Z,20.52
2023-04-02T01:08:03.239Z,21.80
2023-04-02T01:10:54.091Z,20.40
2023-04-02T01:13:31.926Z,22.10
2023-04-02T01:16:07.286Z,25.80
2023-04-02T01:18:51.656Z,23.65
2023-04-02T01:21:37.972Z,14.57
2023-04-02T01:24:10.084Z,15.10
2023-04-02T01:26:53.217Z,15.98
2023-04-02T01:29:28.501Z,14.68
2023-04-02T01:32:03.392Z,15.07
2023-04-02T01:34:37.898Z,12.18
2023-04-02T01:37:34.750Z,16.17
2023-04-02T01:40:24.785Z,18.35
2023-04-02T01:43:04.160Z,18.20
2023-04-02T01:45:35.802Z,20.65
2023-04-02T01:48:10.374Z,22.83
2023-04-02T01:50:41.623Z,20.23
2023-04-02T01:53:13.435Z,21.38
2023-04-02T01:55:48.742Z,17.48
2023-04-02T01:58:24.026Z,14.48
2023-04-02T02:01:00.884Z,14.63
2023-04-02T02:03:29.855Z,13.63
2023-04-02T02:05:58.851Z,14.10
2023-04-02T02:08:38.089Z,13.80
2023-04-02T02:11:09.585Z,12.88
2023-04-02T02:13:39.454Z,15.60
2023-04-02T02:16:18.195Z,19.25
2023-04-02T02:18:50.737Z,17.77
2023-04-02T02:21:33.196Z,16.92
2023-04-02T02:24:04.735Z,20.42
2023-04-02T02:26:35.858Z,18.85
2023-04-02T02:29:07.765Z,20.60
2023-04-02T02:31:41.818Z,18.27
2023-04-02T02:34:19.078Z,14.88
2023-04-02T02:36:53.938Z,15.25
2023-04-02T02:39:28.021Z,14.00
2023-04-02T02:42:01.864Z,13.32
2023-04-02T02:44:34.435Z,17.30
2023-04-02T02:47:11.204Z,14.77
2023-04-02T02:49:43.795Z,15.07
2023-04-02T02:55:01.277Z,17.50
2023-04-02T02:57:43.590Z,16.20
2023-04-02T03:00:15.846Z,15.10
2023-04-02T03:02:45.924Z,16.73
2023-04-02T03:05:20.520Z,19.15
2023-04-02T03:07:53.294Z,20.50
2023-04-02T03:10:30.903Z,19.50
2023-04-02T03:13:09.062Z,22.50
2023-04-02T03:15:43.474Z,21.63
2023-04-02T03:18:20.791Z,20.85
2023-04-02T03:20:53.808Z,21.70
2023-04-02T03:23:28.444Z,23.67
2023-04-02T03:26:03.414Z,23.90
2023-04-02T03:28:37.347Z,20.02
2023-04-02T03:31:11.980Z,22.38
2023-04-02T03:33:46.550Z,21.60
2023-04-02T03:36:24.273Z,19.02
2023-04-02T03:38:57.946Z,20.42
2023-04-02T03:41:34.352Z,21.48
2023-04-02T03:44:12.470Z,20.70
2023-04-02T03:46:46.701Z,18.17
2023-04-02T03:49:26.466Z,16.73
2023-04-02T03:52:01.785Z,16.92
2023-04-02T03:54:30.224Z,17.95
2023-04-02T03:56:59.694Z,16.80
2023-04-02T03:59:40.941Z,14.40
2023-04-02T04:02:35.640Z,13.07
2023-04-02T04:05:16.975Z,17.48
2023-04-02T04:07:46.060Z,16.58
2023-04-02T04:10:21.710Z,16.30
2023-04-02T04:12:52.942Z,15.32
2023-04-02T04:15:29.989Z,16.35
2023-04-02T04:18:04.352Z,19.08
2023-04-02T04:20:51.150Z,20.92
2023-04-02T04:23:30.066Z,18.90
2023-04-02T04:26:05.453Z,23.42
2023-04-02T04:28:44.407Z,21.65
2023-04-02T04:31:24.603Z,20.25
2023-04-02T04:34:03.013Z,20.00
2023-04-02T04:36:41.560Z,18.33
2023-04-02T04:39:21.366Z,19.33
2023-04-02T04:41:53.442Z,18.25
2023-04-02T04:44:26.447Z,19.48
2023-04-02T04:47:03.716Z,17.58
2023-04-02T04:49:37.225Z,21.13
2023-04-02T04:52:14.902Z,21.40
2023-04-02T04:54:43.730Z,19.38
2023-04-02T04:57:28.299Z,23.35
2023-04-02T05:00:02.120Z,18.83
2023-04-02T05:02:38.999Z,20.17
2023-04-02T05:05:20.442Z,21.55
2023-04-02T05:07:59.094Z,20.20
2023-04-02T05:10:37.939Z,21.63
2023-04-02T05:13:16.121Z,23.27
2023-04-02T05:15:54.024Z,20.88
2023-04-02T05:18:29.602Z,19.33
2023-04-02T05:21:06.910Z,20.48
2023-04-02T05:23:45.702Z,21.65
2023-04-02T05:26:20.533Z,20.33
2023-04-02T05:28:56.895Z,21.58
2023-04-02T05:31:31.065Z,21.05
2023-04-02T05:33:59.798Z,19.90
2023-04-02T05:36:31.262Z,21.35
2023-04-02T05:41:41.502Z,17.85
2023-04-02T05:44:20.443Z,19.65
2023-04-02T05:46:56.027Z,21.35
2023-04-02T05:49:33.414Z,20.75
2023-04-02T05:52:05.165Z,19.30
2023-04-02T05:54:43.751Z,21.97
2023-04-02T05:57:20.483Z,21.65
2023-04-02T05:59:55.009Z,23.02
2023-04-02T06:02:31.702Z,24.13
2023-04-02T06:05:06.385Z,25.13
2023-04-02T06:07:46.421Z,27.17
2023-04-02T06:10:24.822Z,25.58
2023-04-02T06:13:03.267Z,24.42
2023-04-02T06:15:37.855Z,26.15
2023-04-02T06:18:22.084Z,26.05
2023-04-02T06:20:51.547Z,29.48
2023-04-02T06:23:30.827Z,27.17
2023-04-02T06:26:06.805Z,29.33
2023-04-02T06:28:46.279Z,26.88
2023-04-02T06:31:32.075Z,26.42
2023-04-02T06:34:00.971Z,24.63
2023-04-02T06:36:29.790Z,23.30
2023-04-02T06:39:09.117Z,24.50
2023-04-02T06:41:39.768Z,30.60
2023-04-02T06:44:33.947Z,22.67
2023-04-02T06:47:31.560Z,23.20
2023-04-02T06:50:08.014Z,22.25
2023-04-02T06:52:41.413Z,27.00
2023-04-02T06:55:33.990Z,22.63
2023-04-02T06:58:04.155Z,26.88
2023-04-02T07:00:38.245Z,24.25
2023-04-02T07:03:16.601Z,23.33
2023-04-02T07:05:45.818Z,23.98
2023-04-02T07:08:14.102Z,22.52
2023-04-02T07:10:42.660Z,25.08
2023-04-02T07:13:16.514Z,26.85
2023-04-02T07:15:46.203Z,24.45
2023-04-02T07:18:26.893Z,28.45
2023-04-02T07:20:56.066Z,26.27
2023-04-02T07:23:25.454Z,26.83
2023-04-02T07:25:55.668Z,26.27
2023-04-02T07:28:25.765Z,33.42
2023-04-02T07:30:54.707Z,32.75
2023-04-02T07:33:26.723Z,30.48
2023-04-02T07:35:58.259Z,36.90
2023-04-02T07:38:26.831Z,28.98
2023-04-02T07:40:54.948Z,36.33
2023-04-02T07:43:26.531Z,28.52
2023-04-02T07:45:54.707Z,30.30
2023-04-02T07:48:23.325Z,27.52
2023-04-02T07:50:51.742Z,29.33
2023-04-02T07:53:30.686Z,25.58
2023-04-02T07:56:01.096Z,31.77
2023-04-02T07:58:32.279Z,36.85
2023-04-02T08:01:03.732Z,35.58
2023-04-02T08:03:32.796Z,38.05
2023-04-02T08:06:04.006Z,42.42
2023-04-02T08:08:32.167Z,32.17
2023-04-02T08:11:00.493Z,38.50
2023-04-02T08:13:31.923Z,43.80
2023-04-02T08:16:00.598Z,39.42
2023-04-02T08:18:29.225Z,38.10
2023-04-02T08:20:58.370Z,49.33
2023-04-02T08:23:27.435Z,40.45
2023-04-02T08:25:56.524Z,41.00
2023-04-02T08:28:24.741Z,37.28
2023-04-02T08:30:54.328Z,36.17
2023-04-02T08:33:22.550Z,38.10
2023-04-02T08:35:51.551Z,41.97
2023-04-02T08:38:22.701Z,32.83
2023-04-02T08:40:53.319Z,40.40
2023-04-02T08:43:57.023Z,38.20
2023-04-02T08:46:31.698Z,35.50
2023-04-02T08:49:03.628Z,38.63
2023-04-02T08:51:37.329Z,40.53
2023-04-02T08:54:17.446Z,44.35
2023-04-02T08:56:53.244Z,37.90
2023-04-02T08:59:31.756Z,40.38
2023-04-02T09:02:15.372Z,35.83
2023-04-02T09:04:46.051Z,31.20
2023-04-02T09:07:16.972Z,38.80
2023-04-02T09:09:49.817Z,32.42
2023-04-02T09:12:21.839Z,35.15
2023-04-02T09:15:12.261Z,31.40
2023-04-02T09:17:52.899Z,32.15
2023-04-02T09:20:26.315Z,26.05
2023-04-02T09:22:56.666Z,28.40
2023-04-02T09:25:28.763Z,26.25
2023-04-02T09:28:00.113Z,31.10
2023-04-02T09:30:47.922Z,28.45
2023-04-02T09:33:17.474Z,30.65
2023-04-02T09:35:57.867Z,26.05
2023-04-02T09:38:30.578Z,28.70
2023-04-02T09:43:31.903Z,27.55
2023-04-02T09:46:04.053Z,28.42
2023-04-02T09:48:37.784Z,29.02
2023-04-02T09:51:13.967Z,33.83
2023-04-02T09:53:45.951Z,30.40
2023-04-02T09:56:18.394Z,30.08
2023-04-02T09:59:02.593Z,32.22
2023-04-02T10:01:33.761Z,32.45
2023-04-02T10:04:05.920Z,27.02
2023-04-02T10:06:35.573Z,27.65
2023-04-02T10:09:29.671Z,30.42
2023-04-02T10:11:59.809Z,30.52
2023-04-02T10:14:34.178Z,29.92
2023-04-02T10:17:11.856Z,27.00
2023-04-02T10:19:46.558Z,25.08
2023-04-02T10:22:18.632Z,28.85
2023-04-02T10:24:47.403Z,30.00
2023-04-02T10:27:29.561Z,24.27
2023-04-02T10:30:20.057Z,27.10
2023-04-02T10:32:52.789Z,27.50
2023-04-02T10:35:44.883Z,26.42
2023-04-02T10:38:28.849Z,24.20
2023-04-02T10:41:01.752Z,24.63
2023-04-02T10:44:17.066Z,19.75
2023-04-02T10:46:59.464Z,23.48
2023-04-02T10:49:39.341Z,25.25
2023-04-02T10:52:15.609Z,19.48
2023-04-02T10:54:50.166Z,19.98
2023-04-02T10:57:38.246Z,16.95
2023-04-02T11:00:19.283Z,17.95
2023-04-02T11:02:58.104Z,16.15
2023-04-02T11:05:40.109Z,16.63
2023-04-02T11:08:18.255Z,17.17
2023-04-02T11:10:51.746Z,17.48
2023-04-02T11:13:25.471Z,18.73
2023-04-02T11:15:54.629Z,14.90
2023-04-02T11:18:34.039Z,19.80
2023-04-02T11:21:06.339Z,16.13
2023-04-02T11:23:40.595Z,15.23
2023-04-02T11:26:38.708Z,14.27
2023-04-02T11:29:32.233Z,16.38
2023-04-02T11:32:28.632Z,14.77
2023-04-02T11:35:40.671Z,15.57
2023-04-02T11:38:52.965Z,16.17
2023-04-02T11:42:02.641Z,14.70
2023-04-02T11:44:31.992Z,11.88
2023-04-02T11:47:17.736Z,11.75
2023-04-02T11:50:07.663Z,14.63
2023-04-02T11:52:51.648Z,14.43
2023-04-02T11:55:30.550Z,11.95
2023-04-02T11:58:39.606Z,11.48
2023-04-02T12:01:55.452Z,13.32
2023-04-02T12:04:54.627Z,13.90
2023-04-02T12:08:08.234Z,13.27
2023-04-02T12:10:57.646Z,13.32
2023-04-02T12:13:58.508Z,13.68
2023-04-02T12:16:31.276Z,14.07
2023-04-02T12:19:00.482Z,13.07
2023-04-02T12:21:30.529Z,12.07
2023-04-02T12:24:01.803Z,12.10
2023-04-02T12:26:38.808Z,12.18
2023-04-02T12:29:27.055Z,16.27
2023-04-02T12:31:57.077Z,11.00
2023-04-02T12:34:28.291Z,10.25
2023-04-02T12:37:02.487Z,9.88
2023-04-02T12:39:31.696Z,12.50
2023-04-02T12:42:01.677Z,25.40
2023-04-02T12:44:31.708Z,9.32
2023-04-02T12:47:00.470Z,10.98
2023-04-02T12:49:37.604Z,12.07
2023-04-02T12:52:08.658Z,10.32
2023-04-02T12:54:44.902Z,9.45
2023-04-02T12:57:38.968Z,13.55
2023-04-02T13:00:34.383Z,12.57
2023-04-02T13:03:23.518Z,11.57
2023-04-02T13:05:56.148Z,12.63
2023-04-02T13:10:58.308Z,11.90
2023-04-02T13:13:33.398Z,11.32
2023-04-02T13:16:22.515Z,13.18
2023-04-02T13:18:51.536Z,10.45
2023-04-02T13:21:28.746Z,12.93
2023-04-02T13:23:57.352Z,12.02
2023-04-02T13:26:28.529Z,10.10
2023-04-02T13:29:01.399Z,11.70
2023-04-02T13:31:30.661Z,12.02
2023-04-02T13:33:59.474Z,12.05
2023-04-02T13:36:29.254Z,11.25
2023-04-02T13:38:57.807Z,11.10
2023-04-02T13:41:28.925Z,13.50
2023-04-02T13:44:01.323Z,12.52
2023-04-02T13:46:32.493Z,10.07
2023-04-02T13:49:00.840Z,10.77
2023-04-02T13:51:37.222Z,15.63
2023-04-02T13:54:11.738Z,10.38
2023-04-02T13:56:39.866Z,11.60
2023-04-02T13:59:09.479Z,16.55
2023-04-02T14:01:38.510Z,9.52
2023-04-02T14:04:07.415Z,10.70
2023-04-02T14:07:21.657Z,9.65
2023-04-02T14:10:08.511Z,9.15
2023-04-02T14:13:00.275Z,14.90
2023-04-02T14:15:45.557Z,7.97
2023-04-02T14:18:42.048Z,12.45
2023-04-02T14:21:22.404Z,9.20
2023-04-02T14:24:08.853Z,8.18
2023-04-02T14:26:47.444Z,9.25
2023-04-02T14:29:23.955Z,9.35
2023-04-02T14:32:04.230Z,9.48
2023-04-02T14:34:43.318Z,10.57
2023-04-02T14:37:21.597Z,9.15
2023-04-02T14:40:05.555Z,7.80
2023-04-02T14:42:41.492Z,12.13
2023-04-02T14:45:18.384Z,9.13
2023-04-02T14:47:53.035Z,9.73
2023-04-02T14:50:27.961Z,8.73
2023-04-02T14:53:02.600Z,10.20
2023-04-02T14:55:38.323Z,9.50
2023-04-02T14:58:19.855Z,10.25
2023-04-02T15:01:00.396Z,11.40
2023-04-02T15:03:36.506Z,8.70
2023-04-02T15:06:12.198Z,9.05
2023-04-02T15:08:52.281Z,8.32
2023-04-02T15:11:30.331Z,8.95
2023-04-02T15:14:07.898Z,10.55
2023-04-02T15:16:36.400Z,9.85
2023-04-02T15:19:13.815Z,9.98
2023-04-02T15:22:05.265Z,8.98
2023-04-02T15:24:50.588Z,8.48
2023-04-02T15:27:53.129Z,7.85
2023-04-02T15:30:25.963Z,9.02
2023-04-02T15:32:57.034Z,7.28
2023-04-02T15:35:38.402Z,7.43
2023-04-02T15:38:12.912Z,6.97
2023-04-02T15:40:56.663Z,5.68
2023-04-02T15:43:30.273Z,9.43
2023-04-02T15:46:17.600Z,6.63
2023-04-02T15:49:21.019Z,6.57
2023-04-02T15:52:06.565Z,6.10
2023-04-02T15:54:57.448Z,14.00
2023-04-02T15:57:51.007Z,10.77
2023-04-02T16:00:30.637Z,6.47
2023-04-02T16:03:23.724Z,7.70
2023-04-02T16:08:46.913Z,7.85
2023-04-02T16:11:16.830Z,7.88
2023-04-02T16:13:45.509Z,5.75
2023-04-02T16:16:18.817Z,5.38
2023-04-02T16:18:57.435Z,5.80
2023-04-02T16:21:30.077Z,7.20
2023-04-02T16:26:43.250Z,9.63
2023-04-02T16:29:51.064Z,7.38
2023-04-02T16:32:42.051Z,8.15
2023-04-02T16:35:41.871Z,8.15
2023-04-02T16:38:24.983Z,10.95
2023-04-02T16:41:09.342Z,5.72
2023-04-02T16:43:50.721Z,6.75
2023-04-02T16:46:39.322Z,6.50
2023-04-02T16:49:22.239Z,6.97
2023-04-02T16:52:03.544Z,5.35
2023-04-02T16:54:41.990Z,5.38
2023-04-02T16:57:27.621Z,7.32
2023-04-02T17:00:12.706Z,5.90
2023-04-02T17:02:55.461Z,6.32
2023-04-02T17:05:33.081Z,5.90
2023-04-02T17:08:18.252Z,6.70
2023-04-02T17:10:54.893Z,8.02
2023-04-02T17:13:35.032Z,8.88
2023-04-02T17:16:13.546Z,8.68
2023-04-02T17:18:45.013Z,9.07
2023-04-02T17:21:19.905Z,7.47
2023-04-02T17:23:56.300Z,7.82
2023-04-02T17:26:28.612Z,7.90
2023-04-02T17:29:01.362Z,9.98
2023-04-02T17:34:10.803Z,7.88
2023-04-02T17:36:47.122Z,8.82
2023-04-02T17:39:25.501Z,6.45
2023-04-02T17:42:08.092Z,7.55
2023-04-02T17:44:53.358Z,6.55
2023-04-02T17:47:24.708Z,9.45
2023-04-02T17:50:44.579Z,10.32
2023-04-02T17:53:45.598Z,7.78
2023-04-02T17:56:38.301Z,9.18
2023-04-02T17:59:36.871Z,15.18
2023-04-02T18:02:25.617Z,10.90
2023-04-02T18:05:05.378Z,12.27
2023-04-02T18:07:47.014Z,10.43
2023-04-02T18:10:23.058Z,10.77
2023-04-02T18:13:11.138Z,9.52
2023-04-02T18:16:04.320Z,8.02
2023-04-02T18:19:00.333Z,8.18
2023-04-02T18:21:40.339Z,10.57
2023-04-02T18:24:32.100Z,7.65
2023-04-02T18:27:24.209Z,10.80
2023-04-02T18:30:09.141Z,10.50
2023-04-02T18:33:03.381Z,8.20
2023-04-02T18:35:40.550Z,8.40
2023-04-02T18:38:24.993Z,11.48
2023-04-02T18:41:28.881Z,8.73
2023-04-02T18:44:15.921Z,9.75
2023-04-02T18:46:51.543Z,11.95
2023-04-02T18:49:29.735Z,12.40
2023-04-02T18:52:05.128Z,9.35
2023-04-02T18:54:36.602Z,8.95
2023-04-02T18:57:16.785Z,12.63
2023-04-02T18:59:52.888Z,26.02
2023-04-02T19:02:47.061Z,10.88
2023-04-02T19:05:25.267Z,13.02
2023-04-02T19:08:06.183Z,13.05
2023-04-02T19:10:39.468Z,10.68
2023-04-02T19:13:18.147Z,8.77
2023-04-02T19:16:31.573Z,9.10
2023-04-02T19:19:15.962Z,13.85
2023-04-02T19:22:18.354Z,12.50
2023-04-02T19:25:26.699Z,15.77
2023-04-02T19:28:15.662Z,15.95
2023-04-02T19:34:52.680Z,8.60
2023-04-02T19:37:34.605Z,8.40
2023-04-02T19:40:32.159Z,14.10
2023-04-02T19:43:04.303Z,10.43
2023-04-02T19:45:48.530Z,11.43
2023-04-02T19:48:26.273Z,8.70
2023-04-02T19:51:02.064Z,11.57
2023-04-02T19:53:30.924Z,8.30
2023-04-02T19:56:04.853Z,12.40
2023-04-02T19:58:36.504Z,10.50
2023-04-02T20:01:10.557Z,8.00
2023-04-02T20:03:40.665Z,7.85
2023-04-02T20:06:11.002Z,12.45
2023-04-02T20:08:41.311Z,10.57
2023-04-02T20:11:30.711Z,10.77
2023-04-02T20:14:02.359Z,9.93
2023-04-02T20:16:33.097Z,9.80
2023-04-02T20:19:04.060Z,9.27
2023-04-02T20:21:40.658Z,12.18
2023-04-02T20:24:10.591Z,10.23
2023-04-02T20:26:46.412Z,16.80
2023-04-02T20:29:17.011Z,9.75
2023-04-02T20:31:46.979Z,13.50
2023-04-02T20:34:26.051Z,19.40
2023-04-02T20:36:54.967Z,18.08
2023-04-02T20:39:24.156Z,19.85
2023-04-02T20:41:54.173Z,12.77
2023-04-02T20:44:22.798Z,13.85
2023-04-02T20:46:51.103Z,15.30
2023-04-02T20:49:19.349Z,13.40
2023-04-02T20:51:48.491Z,19.23
2023-04-02T20:54:16.880Z,20.55
2023-04-02T20:56:45.730Z,20.27
2023-04-02T20:59:15.413Z,11.55
2023-04-02T21:01:44.198Z,13.80
2023-04-02T21:04:13.024Z,10.57
2023-04-02T21:06:42.092Z,16.00
2023-04-02T21:09:15.608Z,9.57
2023-04-02T21:11:44.229Z,10.50
2023-04-02T21:14:14.004Z,8.93
2023-04-02T21:16:42.461Z,12.93
2023-04-02T21:19:11.356Z,18.27
2023-04-02T21:21:41.031Z,17.42
2023-04-02T21:24:10.922Z,15.88
2023-04-02T21:26:42.358Z,13.95
2023-04-02T21:29:14.573Z,15.40
2023-04-02T21:31:44.143Z,12.40
2023-04-02T21:34:16.509Z,12.82
2023-04-02T21:36:46.973Z,12.98
2023-04-02T21:39:19.948Z,11.40
2023-04-02T21:41:51.039Z,10.60
2023-04-02T21:44:22.520Z,12.27
2023-04-02T21:46:53.107Z,9.63
2023-04-02T21:49:23.849Z,9.32
2023-04-02T21:51:52.383Z,11.55
2023-04-02T21:54:20.643Z,10.85
2023-04-02T21:56:49.468Z,10.52
2023-04-02T21:59:19.978Z,11.00
2023-04-02T22:01:50.354Z,9.32
2023-04-02T22:04:20.845Z,8.25
2023-04-02T22:06:50.077Z,9.30
2023-04-02T22:09:22.266Z,8.15
2023-04-02T22:11:53.985Z,10.00
2023-04-02T22:14:23.711Z,7.57
2023-04-02T22:16:52.339Z,7.75
2023-04-02T22:19:20.664Z,9.18
2023-04-02T22:21:49.227Z,8.07
2023-04-02T22:24:21.888Z,8.20
2023-04-02T22:29:18.758Z,7.63
2023-04-02T22:31:48.583Z,11.13
2023-04-02T22:34:16.804Z,8.15
2023-04-02T22:36:45.001Z,9.52
2023-04-02T22:39:14.959Z,10.18
2023-04-02T22:41:43.282Z,9.32
2023-04-02T22:44:17.252Z,10.02
2023-04-02T22:46:47.211Z,11.25
2023-04-02T22:49:18.967Z,11.10
2023-04-02T22:51:47.549Z,9.38
2023-04-02T22:54:15.963Z,8.55
2023-04-02T22:56:44.199Z,10.40
2023-04-02T22:59:12.373Z,9.80
2023-04-02T23:01:40.887Z,8.88
2023-04-02T23:04:10.548Z,11.45
2023-04-02T23:06:38.693Z,12.07
2023-04-02T23:09:06.885Z,10.30
2023-04-02T23:11:35.072Z,14.50
2023-04-02T23:14:03.221Z,11.65
2023-04-02T23:16:31.765Z,10.32
2023-04-02T23:19:00.316Z,13.80
2023-04-02T23:21:30.727Z,9.50
2023-04-02T23:23:58.824Z,8.90
2023-04-02T23:26:31.200Z,13.98
2023-04-02T23:29:00.624Z,24.25
2023-04-02T23:31:29.604Z,17.35
2023-04-02T23:33:58.464Z,19.88
2023-04-02T23:36:30.398Z,20.23
2023-04-02T23:39:01.414Z,9.25
2023-04-02T23:41:31.594Z,11.57
2023-04-02T23:44:00.798Z,8.13
2023-04-02T23:46:30.496Z,10.48
2023-04-02T23:49:00.635Z,6.47
2023-04-02T23:51:32.393Z,10.63
2023-04-02T23:54:01.260Z,6.33
2023-04-02T23:56:30.053Z,8.82
2023-04-02T23:58:58.286Z,9.18
